createdAt,value
2019-05-15T00:01:10.091Z,55.38
2019-05-15T00:03:38.831Z,55.41
2019-05-15T00:06:02.328Z,55.31
2019-05-15T00:08:28.835Z,55.36
2019-05-15T00:10:54.336Z,55.35
2019-05-15T00:13:20.338Z,55.34
2019-05-15T00:15:48.161Z,55.33
2019-05-15T00:18:12.352Z,55.33
2019-05-15T00:20:39.504Z,55.28
2019-05-15T00:23:04.480Z,55.25
2019-05-15T00:25:30.486Z,55.25
2019-05-15T00:27:58.247Z,55.19
2019-05-15T00:30:22.497Z,55.20
2019-05-15T00:32:48.785Z,55.17
2019-05-15T00:35:14.509Z,55.18
2019-05-15T00:37:40.518Z,55.19
2019-05-15T00:40:08.539Z,55.13
2019-05-15T00:42:32.513Z,55.11
2019-05-15T00:44:58.592Z,55.13
2019-05-15T00:47:24.529Z,55.10
2019-05-15T00:49:50.548Z,55.09
2019-05-15T00:52:18.031Z,55.04
2019-05-15T00:54:42.552Z,55.03
2019-05-15T00:57:08.659Z,55.03
2019-05-15T00:59:34.567Z,55.05
2019-05-15T01:02:00.570Z,54.99
2019-05-15T01:04:28.067Z,55.00
2019-05-15T01:06:52.856Z,54.97
2019-05-15T01:09:18.800Z,54.95
2019-05-15T01:11:44.620Z,54.95
2019-05-15T01:14:12.170Z,54.93
2019-05-15T01:16:38.287Z,54.93
2019-05-15T01:19:02.735Z,54.93
2019-05-15T01:21:28.750Z,54.92
2019-05-15T01:23:54.740Z,54.90
2019-05-15T01:26:20.759Z,54.88
2019-05-15T01:28:49.262Z,54.86
2019-05-15T01:31:12.753Z,54.87
2019-05-15T01:33:39.262Z,54.84
2019-05-15T01:36:04.769Z,54.84
2019-05-15T01:38:30.782Z,54.83
2019-05-15T01:40:58.995Z,54.83
2019-05-15T01:43:22.796Z,54.81
2019-05-15T01:45:48.814Z,54.81
2019-05-15T01:48:14.808Z,54.82
2019-05-15T01:50:40.828Z,54.79
2019-05-15T01:53:08.293Z,54.79
2019-05-15T01:55:32.843Z,54.76
2019-05-15T01:57:58.843Z,54.76
2019-05-15T02:00:24.846Z,54.77
2019-05-15T02:02:50.864Z,54.75
2019-05-15T02:05:18.693Z,54.73
2019-05-15T02:07:42.882Z,54.77
2019-05-15T02:10:09.383Z,54.74
2019-05-15T02:12:34.900Z,54.74
2019-05-15T02:15:00.925Z,54.73
2019-05-15T02:17:28.280Z,54.73
2019-05-15T02:19:52.910Z,54.73
2019-05-15T02:22:19.090Z,54.72
2019-05-15T02:24:44.918Z,54.71
2019-05-15T02:27:10.935Z,54.68
2019-05-15T02:29:37.856Z,54.66
2019-05-15T02:32:02.988Z,54.70
2019-05-15T02:34:30.016Z,54.66
2019-05-15T02:36:54.992Z,54.67
2019-05-15T02:39:21.009Z,54.66
2019-05-15T02:41:49.175Z,54.65
2019-05-15T02:44:13.022Z,54.65
2019-05-15T02:46:39.337Z,54.63
2019-05-15T02:49:05.054Z,54.61
2019-05-15T02:51:31.052Z,54.63
2019-05-15T02:53:58.544Z,54.62
2019-05-15T02:56:23.070Z,54.58
2019-05-15T02:58:49.355Z,54.60
2019-05-15T03:01:15.145Z,54.59
2019-05-15T03:03:41.214Z,54.58
2019-05-15T03:06:09.948Z,54.60
2019-05-15T03:08:33.231Z,54.56
2019-05-15T03:10:59.493Z,54.57
2019-05-15T03:13:25.238Z,54.55
2019-05-15T03:15:51.250Z,54.56
2019-05-15T03:18:19.354Z,54.56
2019-05-15T03:20:43.264Z,54.53
2019-05-15T03:23:10.031Z,54.57
2019-05-15T03:25:35.278Z,54.55
2019-05-15T03:28:01.292Z,54.53
2019-05-15T03:30:32.374Z,54.54
2019-05-15T03:33:01.157Z,54.53
2019-05-15T03:35:22.837Z,54.54
2019-05-15T03:37:45.382Z,54.51
2019-05-15T03:40:11.377Z,54.48
2019-05-15T03:42:39.339Z,54.50
2019-05-15T03:45:03.424Z,54.49
2019-05-15T03:47:30.224Z,54.48
2019-05-15T03:49:55.453Z,54.48
2019-05-15T03:52:21.482Z,54.56
2019-05-15T03:54:49.511Z,54.74
2019-05-15T03:57:13.553Z,54.70
2019-05-15T03:59:40.041Z,54.86
2019-05-15T04:02:08.494Z,54.84
2019-05-15T04:04:31.621Z,54.82
2019-05-15T04:06:59.585Z,54.77
2019-05-15T04:09:23.663Z,54.74
2019-05-15T04:11:50.070Z,54.74
2019-05-15T04:14:19.147Z,54.69
2019-05-15T04:16:41.831Z,54.72
2019-05-15T04:19:09.765Z,54.67
2019-05-15T04:21:33.848Z,54.42
2019-05-15T04:23:59.851Z,54.46
2019-05-15T04:26:28.412Z,54.49
2019-05-15T04:28:51.903Z,54.48
2019-05-15T04:31:19.398Z,54.47
2019-05-15T04:33:43.940Z,54.77
2019-05-15T04:36:10.163Z,55.10
2019-05-15T04:38:39.004Z,55.20
2019-05-15T04:41:02.006Z,55.19
2019-05-15T04:43:30.239Z,55.13
2019-05-15T04:45:54.079Z,55.15
2019-05-15T04:48:20.301Z,55.21
2019-05-15T04:50:49.441Z,55.39
2019-05-15T04:53:12.137Z,55.41
2019-05-15T04:55:40.432Z,55.54
2019-05-15T04:58:04.198Z,55.82
2019-05-15T05:00:30.190Z,55.67
2019-05-15T05:02:58.776Z,55.81
2019-05-15T05:05:22.324Z,55.85
2019-05-15T05:07:49.097Z,55.81
2019-05-15T05:10:14.356Z,56.03
2019-05-15T05:12:42.542Z,55.62
2019-05-15T05:15:08.451Z,55.63
2019-05-15T05:17:32.417Z,55.85
2019-05-15T05:19:58.455Z,55.61
2019-05-15T05:22:24.460Z,55.92
2019-05-15T05:24:50.541Z,55.67
2019-05-15T05:27:18.278Z,55.84
2019-05-15T05:29:42.566Z,55.70
2019-05-15T05:32:09.192Z,55.84
2019-05-15T05:34:34.608Z,55.84
2019-05-15T05:37:00.624Z,55.61
2019-05-15T05:39:29.240Z,55.78
2019-05-15T05:41:52.661Z,55.69
2019-05-15T05:44:18.963Z,55.81
2019-05-15T05:46:44.741Z,55.81
2019-05-15T05:49:10.762Z,55.77
2019-05-15T05:51:38.679Z,55.59
2019-05-15T05:54:02.787Z,55.75
2019-05-15T05:56:28.932Z,55.62
2019-05-15T05:58:54.810Z,55.86
2019-05-15T06:01:20.815Z,55.76
2019-05-15T06:03:48.901Z,55.72
2019-05-15T06:06:12.858Z,55.77
2019-05-15T06:08:39.127Z,55.94
2019-05-15T06:11:04.884Z,56.08
2019-05-15T06:13:30.904Z,55.59
2019-05-15T06:15:58.949Z,54.86
2019-05-15T06:18:23.054Z,55.06
2019-05-15T06:20:49.664Z,55.20
2019-05-15T06:23:15.123Z,54.86
2019-05-15T06:25:41.479Z,54.39
2019-05-15T06:28:09.117Z,55.08
2019-05-15T06:30:33.618Z,54.31
2019-05-15T06:33:05.749Z,53.52
2019-05-15T06:35:25.773Z,53.39
2019-05-15T06:37:51.786Z,53.25
2019-05-15T06:40:18.351Z,53.37
2019-05-15T06:42:43.847Z,53.16
2019-05-15T06:45:09.872Z,53.16
2019-05-15T06:47:35.869Z,52.98
2019-05-15T06:50:01.864Z,53.44
2019-05-15T06:52:28.475Z,53.81
2019-05-15T06:54:53.879Z,53.17
2019-05-15T06:57:19.885Z,53.85
2019-05-15T06:59:48.277Z,53.94
2019-05-15T07:02:12.020Z,53.96
2019-05-15T07:04:38.504Z,53.78
2019-05-15T07:07:04.064Z,53.70
2019-05-15T07:09:30.094Z,53.79
2019-05-15T07:11:56.106Z,53.84
2019-05-15T07:14:22.124Z,53.18
2019-05-15T07:16:48.948Z,52.48
2019-05-15T07:19:14.145Z,52.05
2019-05-15T07:21:40.142Z,52.29
2019-05-15T07:24:06.159Z,53.53
2019-05-15T07:26:32.152Z,53.99
2019-05-15T07:28:59.638Z,55.52
2019-05-15T07:31:24.331Z,55.26
2019-05-15T07:33:50.341Z,53.97
2019-05-15T07:36:19.017Z,53.23
2019-05-15T07:38:42.356Z,54.01
2019-05-15T07:41:10.084Z,55.21
2019-05-15T07:43:34.409Z,57.01
2019-05-15T07:46:00.438Z,56.19
2019-05-15T07:48:28.859Z,55.29
2019-05-15T07:50:52.436Z,54.88
2019-05-15T07:53:19.886Z,54.64
2019-05-15T07:55:44.488Z,54.52
2019-05-15T07:58:10.598Z,54.45
2019-05-15T08:00:39.337Z,54.46
2019-05-15T08:03:02.650Z,54.37
2019-05-15T08:05:28.826Z,54.30
2019-05-15T08:07:54.804Z,54.37
2019-05-15T08:10:20.861Z,54.42
2019-05-15T08:12:49.533Z,54.18
2019-05-15T08:15:13.481Z,53.84
2019-05-15T08:17:58.532Z,53.99
2019-05-15T08:20:05.862Z,54.28
2019-05-15T08:22:31.869Z,54.41
2019-05-15T08:24:59.118Z,54.42
2019-05-15T08:27:24.310Z,54.42
2019-05-15T08:29:50.316Z,54.43
2019-05-15T08:32:18.802Z,54.51
2019-05-15T08:34:42.391Z,54.48
2019-05-15T08:37:08.408Z,54.51
2019-05-15T08:39:34.819Z,54.53
2019-05-15T08:42:00.827Z,54.52
2019-05-15T08:44:29.140Z,54.65
2019-05-15T08:46:52.954Z,54.54
2019-05-15T08:49:20.379Z,54.59
2019-05-15T08:51:45.210Z,54.55
2019-05-15T08:54:11.239Z,54.64
2019-05-15T08:56:39.307Z,54.55
2019-05-15T08:59:03.265Z,54.60
2019-05-15T09:01:29.347Z,54.64
2019-05-15T09:03:58.032Z,54.59
2019-05-15T09:06:23.175Z,54.57
2019-05-15T09:08:49.105Z,54.64
2019-05-15T09:11:14.246Z,54.64
2019-05-15T09:13:43.624Z,54.57
2019-05-15T09:16:08.278Z,54.60
2019-05-15T09:18:33.187Z,54.57
2019-05-15T09:20:59.562Z,54.67
2019-05-15T09:23:25.221Z,54.69
2019-05-15T09:25:51.223Z,54.65
2019-05-15T09:28:18.955Z,54.69
2019-05-15T09:30:43.333Z,54.62
2019-05-15T09:33:09.339Z,54.67
2019-05-15T09:35:35.403Z,54.71
2019-05-15T09:38:01.410Z,54.72
2019-05-15T09:40:42.473Z,54.77
2019-05-15T09:42:53.444Z,54.89
2019-05-15T09:45:19.468Z,54.94
2019-05-15T09:47:48.104Z,55.03
2019-05-15T09:50:11.487Z,54.92
2019-05-15T09:52:38.775Z,54.95
2019-05-15T09:55:03.531Z,54.99
2019-05-15T09:57:30.227Z,54.99
2019-05-15T09:59:58.297Z,54.94
2019-05-15T10:02:21.617Z,54.92
2019-05-15T10:04:49.609Z,54.93
2019-05-15T10:07:13.701Z,54.90
2019-05-15T10:09:39.690Z,54.87
2019-05-15T10:12:05.713Z,54.91
2019-05-15T10:14:31.911Z,54.88
2019-05-15T10:16:58.419Z,54.85
2019-05-15T10:19:25.113Z,54.86
2019-05-15T10:21:53.267Z,54.80
2019-05-15T10:24:18.221Z,54.82
2019-05-15T10:26:43.527Z,54.87
2019-05-15T10:29:09.859Z,54.89
2019-05-15T10:31:35.854Z,54.88
2019-05-15T10:34:02.009Z,54.90
2019-05-15T10:36:29.023Z,54.88
2019-05-15T10:38:55.076Z,54.84
2019-05-15T10:41:21.067Z,54.97
2019-05-15T10:43:55.567Z,54.92
2019-05-15T10:46:19.013Z,54.97
2019-05-15T10:48:43.649Z,54.99
2019-05-15T10:51:10.389Z,55.16
2019-05-15T10:53:35.679Z,55.19
2019-05-15T10:56:02.672Z,55.20
2019-05-15T10:58:28.638Z,55.18
2019-05-15T11:00:53.813Z,55.42
2019-05-15T11:03:20.204Z,55.39
2019-05-15T11:05:46.050Z,55.52
2019-05-15T11:08:11.864Z,55.62
2019-05-15T11:10:41.519Z,55.62
2019-05-15T11:13:03.888Z,55.52
2019-05-15T11:15:29.911Z,55.32
2019-05-15T11:17:58.298Z,55.32
2019-05-15T11:20:21.996Z,55.46
2019-05-15T11:22:50.009Z,55.25
2019-05-15T11:25:13.997Z,55.43
2019-05-15T11:27:40.014Z,55.38
2019-05-15T11:30:07.734Z,55.36
2019-05-15T11:32:32.242Z,55.25
2019-05-15T11:34:58.387Z,55.31
2019-05-15T11:37:24.271Z,55.17
2019-05-15T11:39:50.318Z,55.26
2019-05-15T11:42:16.357Z,55.46
2019-05-15T11:44:42.394Z,55.50
2019-05-15T11:47:08.428Z,55.50
2019-05-15T11:49:34.827Z,55.37
2019-05-15T11:52:00.871Z,55.37
2019-05-15T11:54:28.251Z,55.68
2019-05-15T11:56:52.852Z,55.43
2019-05-15T11:59:19.011Z,55.48
2019-05-15T12:01:45.280Z,55.48
2019-05-15T12:04:25.387Z,55.88
2019-05-15T12:06:38.557Z,55.83
2019-05-15T12:09:03.590Z,55.70
2019-05-15T12:11:36.700Z,55.96
2019-05-15T12:13:55.775Z,55.98
2019-05-15T12:16:21.777Z,55.91
2019-05-15T12:18:48.384Z,56.01
2019-05-15T12:21:13.835Z,55.61
2019-05-15T12:23:39.846Z,55.58
2019-05-15T12:26:08.815Z,55.76
2019-05-15T12:28:31.869Z,55.61
2019-05-15T12:30:59.592Z,55.59
2019-05-15T12:33:23.918Z,55.91
2019-05-15T12:35:51.041Z,55.53
2019-05-15T12:38:18.593Z,55.75
2019-05-15T13:00:10.773Z,55.79
2019-05-15T13:02:38.657Z,55.59
2019-05-15T13:05:02.648Z,55.63
2019-05-15T13:07:28.680Z,55.71
2019-05-15T13:09:54.712Z,55.99
2019-05-15T13:12:20.742Z,55.58
2019-05-15T13:14:48.322Z,55.72
2019-05-15T13:17:12.805Z,55.56
2019-05-15T13:19:38.983Z,55.75
2019-05-15T13:22:17.133Z,55.85
2019-05-15T13:24:30.825Z,55.70
2019-05-15T13:26:58.370Z,55.78
2019-05-15T13:29:22.885Z,55.64
2019-05-15T13:31:48.887Z,55.67
2019-05-15T13:34:14.907Z,55.54
2019-05-15T13:36:40.911Z,55.54
2019-05-15T13:39:06.949Z,55.94
2019-05-15T13:41:32.979Z,55.69
2019-05-15T13:43:58.984Z,55.62
2019-05-15T13:46:25.005Z,55.89
2019-05-15T13:48:51.002Z,55.72
2019-05-15T13:51:18.241Z,55.64
2019-05-15T13:53:43.013Z,55.65
2019-05-15T13:56:09.019Z,55.98
2019-05-15T13:58:38.770Z,55.73
2019-05-15T14:01:03.751Z,55.56
2019-05-15T14:03:29.722Z,55.58
2019-05-15T14:05:58.134Z,55.43
2019-05-15T14:08:21.788Z,55.37
2019-05-15T14:10:48.885Z,55.43
2019-05-15T14:13:14.526Z,55.63
2019-05-15T14:15:41.274Z,55.40
2019-05-15T14:18:08.611Z,55.43
2019-05-15T14:20:33.291Z,55.59
2019-05-15T14:22:59.323Z,55.47
2019-05-15T14:25:25.988Z,55.49
2019-05-15T14:27:52.013Z,55.44
2019-05-15T14:30:18.210Z,55.50
2019-05-15T14:32:44.071Z,55.52
2019-05-15T14:35:10.050Z,55.46
2019-05-15T14:37:36.078Z,55.50
2019-05-15T14:40:02.097Z,55.60
2019-05-15T14:42:29.302Z,55.51
2019-05-15T14:44:54.133Z,55.50
2019-05-15T14:47:20.148Z,55.61
2019-05-15T14:49:49.294Z,55.56
2019-05-15T14:52:12.391Z,55.57
2019-05-15T14:54:38.580Z,55.49
2019-05-15T14:57:04.536Z,55.33
2019-05-15T14:59:30.543Z,55.46
2019-05-15T15:01:58.101Z,55.63
2019-05-15T15:04:22.594Z,55.88
2019-05-15T15:06:48.850Z,55.70
2019-05-15T15:09:14.631Z,55.55
2019-05-15T15:11:40.807Z,55.67
2019-05-15T15:14:08.671Z,55.90
2019-05-15T15:16:32.937Z,56.00
2019-05-15T15:18:58.959Z,56.06
2019-05-15T15:21:25.015Z,55.85
2019-05-15T15:23:51.025Z,56.41
2019-05-15T15:26:19.171Z,56.45
2019-05-15T15:28:43.059Z,56.01
2019-05-15T15:31:09.091Z,56.34
2019-05-15T15:33:35.100Z,56.57
2019-05-15T15:36:01.183Z,56.72
2019-05-15T15:38:40.229Z,56.36
2019-05-15T15:40:53.267Z,56.83
2019-05-15T15:43:19.301Z,57.36
2019-05-15T15:45:45.293Z,57.67
2019-05-15T15:48:11.334Z,57.15
2019-05-15T15:50:38.377Z,56.90
2019-05-15T15:53:03.541Z,57.85
2019-05-15T15:55:29.650Z,57.85
2019-05-15T15:57:55.658Z,57.81
2019-05-15T16:00:21.669Z,57.16
2019-05-15T16:02:48.411Z,57.65
2019-05-15T16:05:13.728Z,57.12
2019-05-15T16:07:43.469Z,57.65
2019-05-15T16:10:08.544Z,57.82
2019-05-15T16:12:33.941Z,57.30
2019-05-15T16:14:59.971Z,57.93
2019-05-15T16:17:28.473Z,58.03
2019-05-15T16:19:52.057Z,57.98
2019-05-15T16:22:19.023Z,57.96
2019-05-15T16:24:44.212Z,57.72
2019-05-15T16:27:10.347Z,57.74
2019-05-15T16:29:39.048Z,58.08
2019-05-15T16:32:02.567Z,58.23
2019-05-15T16:34:28.618Z,57.94
2019-05-15T16:36:54.642Z,57.39
2019-05-15T16:39:20.697Z,57.74
2019-05-15T16:41:48.840Z,57.94
2019-05-15T16:44:13.109Z,57.82
2019-05-15T16:46:39.327Z,57.67
2019-05-15T16:49:05.170Z,57.08
2019-05-15T16:51:32.417Z,57.79
2019-05-15T16:53:58.144Z,57.65
2019-05-15T16:56:23.239Z,57.42
2019-05-15T16:58:49.729Z,57.84
2019-05-15T17:01:18.648Z,57.79
2019-05-15T17:03:44.216Z,57.27
2019-05-15T17:06:10.234Z,57.05
2019-05-15T17:08:37.918Z,57.80
2019-05-15T17:11:02.936Z,57.99
2019-05-15T17:13:29.266Z,57.54
2019-05-15T17:15:55.264Z,57.85
2019-05-15T17:18:21.298Z,57.05
2019-05-15T17:20:48.408Z,57.87
2019-05-15T17:23:13.388Z,57.10
2019-05-15T17:25:39.357Z,57.45
2019-05-15T17:28:05.385Z,57.25
2019-05-15T17:30:31.381Z,57.81
2019-05-15T17:32:57.403Z,57.83
2019-05-15T17:35:23.538Z,57.83
2019-05-15T17:37:49.537Z,57.53
2019-05-15T17:40:17.772Z,57.68
2019-05-15T17:42:42.017Z,57.56
2019-05-15T17:45:09.135Z,57.39
2019-05-15T17:47:34.071Z,56.87
2019-05-15T17:50:02.730Z,57.35
2019-05-15T17:52:29.013Z,56.98
2019-05-15T17:54:54.769Z,57.46
2019-05-15T17:57:21.266Z,57.67
2019-05-15T17:59:48.587Z,57.03
2019-05-15T18:02:13.304Z,57.02
2019-05-15T18:04:39.365Z,56.93
2019-05-15T18:07:05.440Z,56.92
2019-05-15T18:09:31.416Z,56.98
2019-05-15T18:11:58.645Z,56.94
2019-05-15T18:14:23.424Z,56.84
2019-05-15T18:16:50.918Z,56.85
2019-05-15T18:19:16.119Z,56.75
2019-05-15T18:21:42.206Z,56.87
2019-05-15T18:24:09.289Z,56.73
2019-05-15T18:26:34.515Z,56.76
2019-05-15T18:29:00.548Z,57.06
2019-05-15T18:31:28.605Z,56.94
2019-05-15T18:33:55.141Z,56.76
2019-05-15T18:36:19.205Z,57.05
2019-05-15T18:38:48.248Z,57.25
2019-05-15T18:41:13.665Z,57.04
2019-05-15T18:43:39.723Z,56.92
2019-05-15T18:46:08.862Z,57.46
2019-05-15T18:48:32.971Z,57.67
2019-05-15T18:50:58.997Z,57.37
2019-05-15T18:53:24.996Z,57.51
2019-05-15T18:55:51.764Z,57.97
2019-05-15T18:58:19.058Z,58.08
2019-05-15T19:00:43.862Z,57.42
2019-05-15T19:03:19.605Z,57.49
2019-05-15T19:05:38.666Z,57.41
2019-05-15T19:08:03.124Z,57.92
2019-05-15T19:10:29.135Z,58.11
2019-05-15T19:12:55.144Z,58.03
2019-05-15T19:15:21.881Z,58.09
2019-05-15T19:17:47.912Z,57.28
2019-05-15T19:20:13.911Z,57.81
2019-05-15T19:22:41.051Z,57.90
2019-05-15T19:25:05.973Z,57.52
2019-05-15T19:27:32.038Z,57.24
2019-05-15T19:29:59.031Z,57.36
2019-05-15T19:32:24.098Z,57.49
2019-05-15T19:34:50.093Z,57.38
2019-05-15T19:37:18.180Z,57.74
2019-05-15T19:39:42.167Z,57.39
2019-05-15T19:42:08.903Z,57.34
2019-05-15T19:44:34.671Z,57.63
2019-05-15T19:47:00.679Z,57.73
2019-05-15T19:49:26.698Z,57.86
2019-05-15T19:51:52.700Z,57.83
2019-05-15T19:54:18.865Z,57.81
2019-05-15T19:56:44.801Z,57.88
2019-05-15T19:59:10.837Z,57.77
2019-05-15T20:01:38.401Z,57.88
2019-05-15T20:04:02.923Z,57.86
2019-05-15T20:06:28.919Z,57.77
2019-05-15T20:08:54.951Z,57.79
2019-05-15T20:11:20.981Z,57.73
2019-05-15T20:13:48.846Z,57.76
2019-05-15T20:16:13.007Z,57.31
2019-05-15T20:18:39.029Z,57.83
2019-05-15T20:21:05.026Z,57.87
2019-05-15T20:23:31.060Z,57.96
2019-05-15T20:25:57.659Z,57.71
2019-05-15T20:28:23.162Z,57.57
2019-05-15T20:30:49.178Z,57.88
2019-05-15T20:33:15.185Z,57.83
2019-05-15T20:35:41.207Z,57.80
2019-05-15T20:38:07.211Z,57.81
2019-05-15T20:40:33.237Z,57.86
2019-05-15T20:42:59.255Z,57.87
2019-05-15T20:45:25.356Z,57.23
2019-05-15T20:47:51.266Z,57.68
2019-05-15T20:50:19.409Z,57.23
2019-05-15T20:52:43.298Z,57.74
2019-05-15T20:55:09.307Z,57.46
2019-05-15T20:57:37.738Z,57.57
2019-05-15T21:00:01.326Z,57.57
2019-05-15T21:02:29.014Z,57.14
2019-05-15T21:04:53.353Z,57.53
2019-05-15T21:07:34.463Z,57.49
2019-05-15T21:09:45.448Z,57.38
2019-05-15T21:12:11.564Z,57.54
2019-05-15T21:14:39.877Z,56.97
2019-05-15T21:17:03.612Z,57.07
2019-05-15T21:19:29.638Z,57.35
2019-05-15T21:21:55.653Z,56.95
2019-05-15T21:24:21.691Z,57.13
2019-05-15T21:26:48.859Z,57.09
2019-05-15T21:29:13.690Z,57.45
2019-05-15T21:31:40.003Z,57.24
2019-05-15T21:34:06.435Z,57.33
2019-05-15T21:36:31.747Z,57.52
2019-05-15T21:38:58.629Z,57.09
2019-05-15T21:41:23.766Z,57.16
2019-05-15T21:43:50.526Z,57.33
2019-05-15T21:46:16.120Z,57.35
2019-05-15T21:48:42.127Z,57.25
2019-05-15T21:51:11.386Z,57.33
2019-05-15T21:53:34.148Z,57.05
2019-05-15T21:56:00.171Z,56.88
2019-05-15T21:58:28.273Z,57.23
2019-05-15T22:00:52.196Z,57.09
2019-05-15T22:03:19.771Z,57.11
2019-05-15T22:05:44.230Z,57.12
2019-05-15T22:08:10.246Z,57.03
2019-05-15T22:10:38.683Z,57.09
2019-05-15T22:13:02.299Z,57.05
2019-05-15T22:15:28.745Z,56.75
2019-05-15T22:17:54.299Z,56.94
2019-05-15T22:20:20.321Z,56.90
2019-05-15T22:22:50.379Z,56.94
2019-05-15T22:25:12.446Z,56.76
2019-05-15T22:27:38.514Z,56.79
2019-05-15T22:30:04.462Z,56.67
2019-05-15T22:32:30.478Z,56.89
2019-05-15T22:35:07.075Z,56.77
2019-05-15T22:37:22.557Z,56.81
2019-05-15T22:39:48.550Z,56.90
2019-05-15T22:42:14.580Z,56.68
2019-05-15T22:44:40.581Z,56.81
2019-05-15T22:47:06.583Z,56.68
2019-05-15T22:49:32.607Z,56.65
2019-05-15T22:51:58.605Z,56.50
2019-05-15T22:54:24.673Z,56.61
2019-05-15T22:56:50.678Z,56.72
2019-05-15T22:59:16.685Z,56.70
2019-05-15T23:01:42.708Z,56.67
2019-05-15T23:04:09.069Z,56.60
2019-05-15T23:06:34.724Z,56.47
2019-05-15T23:09:00.749Z,56.65
2019-05-15T23:11:26.748Z,56.57
2019-05-15T23:13:52.787Z,56.55
2019-05-15T23:16:18.795Z,56.58
2019-05-15T23:18:44.810Z,56.57
2019-05-15T23:21:10.907Z,56.29
2019-05-15T23:23:38.015Z,56.33
2019-05-15T23:26:03.065Z,56.54
2019-05-15T23:28:29.064Z,56.27
2019-05-15T23:30:55.083Z,56.30
2019-05-15T23:33:21.086Z,56.42
2019-05-15T23:35:48.593Z,56.45
2019-05-15T23:38:13.112Z,56.46
2019-05-15T23:40:39.136Z,56.38
2019-05-15T23:43:05.140Z,56.37
2019-05-15T23:45:31.263Z,56.41
2019-05-15T23:47:58.017Z,56.23
2019-05-15T23:50:23.274Z,56.26
2019-05-15T23:52:49.305Z,56.35
2019-05-15T23:55:15.333Z,56.36
2019-05-15T23:57:41.401Z,56.21
